createdAt,value
2018-09-26T00:01:50.728Z,57.40
2018-09-26T00:05:54.093Z,57.63
2018-09-26T00:09:57.480Z,56.94
2018-09-26T00:14:00.874Z,57.27
2018-09-26T00:18:04.593Z,57.24
2018-09-26T00:22:08.453Z,57.81
2018-09-26T00:26:11.844Z,58.22
2018-09-26T00:30:15.272Z,58.11
2018-09-26T00:34:18.732Z,58.80
2018-09-26T00:38:22.246Z,58.15
2018-09-26T00:42:25.636Z,57.93
2018-09-26T00:46:29.123Z,58.12
2018-09-26T00:50:32.487Z,58.49
2018-09-26T00:54:35.890Z,58.19
2018-09-26T00:58:39.250Z,58.43
2018-09-26T01:02:42.659Z,58.61
2018-09-26T01:06:46.012Z,58.47
2018-09-26T01:10:49.458Z,58.27
2018-09-26T01:14:52.838Z,58.85
2018-09-26T01:18:56.247Z,58.81
2018-09-26T01:22:59.622Z,58.43
2018-09-26T01:27:03.331Z,59.13
2018-09-26T01:31:06.767Z,59.53
2018-09-26T01:35:10.131Z,59.12
2018-09-26T01:39:13.503Z,59.59
2018-09-26T01:43:16.963Z,59.46
2018-09-26T01:47:20.351Z,59.25
2018-09-26T01:51:23.984Z,59.43
2018-09-26T01:55:27.491Z,59.30
2018-09-26T01:59:31.041Z,60.19
2018-09-26T02:03:34.622Z,59.44
2018-09-26T02:07:38.173Z,59.76
2018-09-26T02:11:41.726Z,59.73
2018-09-26T02:15:45.295Z,60.01
2018-09-26T02:19:48.783Z,59.93
2018-09-26T02:23:52.231Z,60.01
2018-09-26T02:27:55.608Z,60.11
2018-09-26T02:31:58.975Z,60.82
2018-09-26T02:36:02.416Z,60.14
2018-09-26T02:40:05.782Z,60.82
2018-09-26T02:44:09.314Z,60.22
2018-09-26T02:48:16.820Z,60.88
2018-09-26T02:52:20.206Z,60.96
2018-09-26T02:56:23.568Z,60.77
2018-09-26T03:00:27.013Z,61.23
2018-09-26T03:04:30.387Z,61.16
2018-09-26T03:08:33.825Z,61.73
2018-09-26T03:12:37.209Z,61.95
2018-09-26T03:16:40.541Z,61.75
2018-09-26T03:20:44.889Z,61.45
2018-09-26T03:24:48.274Z,62.32
2018-09-26T03:28:51.647Z,61.77
2018-09-26T03:32:55.039Z,62.20
2018-09-26T03:36:58.435Z,61.90
2018-09-26T03:41:01.805Z,62.13
2018-09-26T03:45:06.524Z,62.77
2018-09-26T03:49:10.047Z,62.67
2018-09-26T03:53:13.630Z,63.06
2018-09-26T03:57:17.142Z,62.65
2018-09-26T04:01:20.624Z,63.10
2018-09-26T04:05:24.233Z,63.32
2018-09-26T04:09:27.843Z,63.45
2018-09-26T04:13:31.446Z,62.96
2018-09-26T04:17:34.993Z,63.04
2018-09-26T04:21:38.569Z,62.92
2018-09-26T04:25:42.126Z,64.56
2018-09-26T04:29:45.708Z,64.05
2018-09-26T04:33:49.258Z,64.13
2018-09-26T04:37:52.769Z,63.16
2018-09-26T04:41:56.356Z,63.83
2018-09-26T04:45:59.885Z,63.76
2018-09-26T04:50:03.558Z,63.55
2018-09-26T04:54:07.319Z,63.85
2018-09-26T04:58:10.946Z,64.47
2018-09-26T05:02:14.424Z,63.96
2018-09-26T05:06:17.996Z,65.50
2018-09-26T05:10:21.554Z,65.78
2018-09-26T05:14:25.193Z,65.19
2018-09-26T05:18:28.751Z,65.18
2018-09-26T05:22:32.263Z,65.25
2018-09-26T05:26:35.816Z,64.96
2018-09-26T05:30:39.361Z,65.10
2018-09-26T05:34:42.880Z,65.22
2018-09-26T05:38:46.433Z,64.89
2018-09-26T05:42:50.013Z,65.48
2018-09-26T05:46:53.658Z,65.54
2018-09-26T05:50:57.201Z,65.25
2018-09-26T05:55:00.729Z,65.87
2018-09-26T05:59:04.491Z,65.99
2018-09-26T06:03:07.884Z,66.44
2018-09-26T06:07:11.287Z,65.79
2018-09-26T06:11:14.660Z,65.84
2018-09-26T06:15:18.086Z,66.55
2018-09-26T06:19:21.457Z,66.02
2018-09-26T06:23:24.788Z,66.42
2018-09-26T06:27:28.216Z,66.63
2018-09-26T06:31:31.634Z,66.40
2018-09-26T06:35:35.019Z,66.45
2018-09-26T06:39:38.406Z,66.68
2018-09-26T06:43:41.831Z,66.55
2018-09-26T06:47:45.198Z,66.82
2018-09-26T06:51:48.592Z,67.12
2018-09-26T06:55:52.055Z,67.17
2018-09-26T06:59:55.456Z,67.14
2018-09-26T07:03:58.821Z,67.01
2018-09-26T07:08:02.694Z,65.95
2018-09-26T07:12:06.133Z,66.33
2018-09-26T07:16:09.552Z,65.75
2018-09-26T07:20:12.910Z,65.08
2018-09-26T07:24:16.337Z,64.86
2018-09-26T07:28:19.719Z,64.52
2018-09-26T07:32:23.105Z,64.06
2018-09-26T07:36:26.511Z,63.39
2018-09-26T07:40:29.892Z,62.62
2018-09-26T07:44:33.262Z,62.61
2018-09-26T07:48:36.749Z,62.60
2018-09-26T07:52:40.227Z,61.50
2018-09-26T07:56:43.596Z,60.69
2018-09-26T08:00:47.091Z,60.17
2018-09-26T08:04:50.519Z,60.70
2018-09-26T08:08:53.907Z,59.42
2018-09-26T08:12:57.305Z,59.46
2018-09-26T08:17:00.762Z,58.76
2018-09-26T08:21:04.171Z,58.78
2018-09-26T08:25:07.597Z,57.16
2018-09-26T08:29:11.073Z,57.62
2018-09-26T08:33:14.512Z,58.08
2018-09-26T08:37:17.939Z,57.15
2018-09-26T08:41:21.359Z,57.12
2018-09-26T08:45:24.773Z,55.54
2018-09-26T08:49:28.188Z,54.88
2018-09-26T08:53:31.667Z,55.55
2018-09-26T08:57:35.004Z,53.40
2018-09-26T09:01:43.752Z,52.75
2018-09-26T09:05:47.159Z,52.49
2018-09-26T09:09:50.579Z,53.16
2018-09-26T09:13:54.139Z,51.47
2018-09-26T09:17:57.556Z,51.86
2018-09-26T09:22:01.064Z,51.71
2018-09-26T09:26:04.906Z,51.59
2018-09-26T09:30:08.348Z,49.41
2018-09-26T09:34:11.768Z,49.98
2018-09-26T09:38:15.204Z,49.39
2018-09-26T09:42:18.561Z,48.26
2018-09-26T09:46:21.975Z,49.21
2018-09-26T09:50:25.443Z,48.42
2018-09-26T09:54:29.273Z,48.20
2018-09-26T09:58:32.693Z,48.84
2018-09-26T10:02:36.158Z,47.77
2018-09-26T10:06:39.632Z,47.75
2018-09-26T10:10:43.012Z,48.18
2018-09-26T10:14:46.367Z,47.92
2018-09-26T10:18:49.791Z,47.41
2018-09-26T10:22:53.200Z,46.42
2018-09-26T10:26:57.075Z,46.06
2018-09-26T10:31:00.585Z,45.47
2018-09-26T10:35:04.168Z,43.48
2018-09-26T10:39:08.459Z,45.29
2018-09-26T10:43:11.868Z,44.76
2018-09-26T10:47:15.259Z,44.67
2018-09-26T10:51:18.659Z,44.50
2018-09-26T10:55:22.044Z,43.46
2018-09-26T10:59:25.484Z,43.39
2018-09-26T11:03:28.884Z,43.61
2018-09-26T11:07:32.292Z,42.72
2018-09-26T11:11:35.691Z,42.80
2018-09-26T11:15:39.052Z,42.85
2018-09-26T11:19:42.487Z,42.41
2018-09-26T11:23:45.909Z,41.60
2018-09-26T11:27:49.292Z,40.83
2018-09-26T11:31:52.661Z,41.05
2018-09-26T11:35:56.067Z,41.43
2018-09-26T11:39:59.551Z,40.89
2018-09-26T11:44:04.245Z,41.16
2018-09-26T11:48:07.604Z,41.57
2018-09-26T11:52:11.124Z,41.15
2018-09-26T11:56:14.857Z,40.91
2018-09-26T12:00:18.231Z,41.33
2018-09-26T12:04:21.625Z,40.65
2018-09-26T12:08:25.139Z,40.89
2018-09-26T12:12:28.530Z,40.64
2018-09-26T12:16:31.975Z,39.85
2018-09-26T12:20:35.347Z,39.66
2018-09-26T12:24:38.911Z,38.84
2018-09-26T12:28:42.493Z,39.48
2018-09-26T12:32:46.054Z,39.43
2018-09-26T12:36:49.807Z,39.87
2018-09-26T12:40:53.344Z,39.70
2018-09-26T12:44:56.699Z,39.19
2018-09-26T12:49:00.114Z,39.03
2018-09-26T12:53:03.559Z,39.35
2018-09-26T12:57:07.000Z,38.81
2018-09-26T13:01:10.465Z,39.02
2018-09-26T13:05:13.930Z,39.08
2018-09-26T13:09:17.391Z,39.63
2018-09-26T13:13:20.892Z,39.48
2018-09-26T13:17:24.312Z,39.41
2018-09-26T13:21:27.691Z,39.10
2018-09-26T13:25:31.159Z,38.87
2018-09-26T13:29:34.454Z,39.10
2018-09-26T13:33:37.871Z,38.88
2018-09-26T13:37:41.306Z,38.95
2018-09-26T13:41:44.715Z,39.24
2018-09-26T13:45:48.157Z,38.58
2018-09-26T13:49:51.513Z,38.44
2018-09-26T13:53:54.900Z,38.81
2018-09-26T13:57:58.289Z,38.64
2018-09-26T14:02:01.714Z,38.64
2018-09-26T14:06:05.411Z,38.90
2018-09-26T14:10:09.034Z,38.55
2018-09-26T14:14:12.528Z,38.63
2018-09-26T14:18:15.907Z,38.69
2018-09-26T14:22:19.345Z,38.89
2018-09-26T14:26:22.838Z,38.79
2018-09-26T14:30:26.227Z,38.97
2018-09-26T14:34:29.591Z,39.17
2018-09-26T14:38:32.960Z,38.80
2018-09-26T14:42:36.379Z,39.24
2018-09-26T14:46:39.928Z,39.49
2018-09-26T14:50:43.375Z,39.19
2018-09-26T14:54:46.814Z,39.62
2018-09-26T14:58:50.292Z,39.13
2018-09-26T15:02:53.692Z,39.49
2018-09-26T15:06:57.080Z,39.43
2018-09-26T15:11:00.444Z,39.88
2018-09-26T15:15:04.471Z,40.01
2018-09-26T15:19:08.115Z,39.72
2018-09-26T15:23:11.563Z,39.90
2018-09-26T15:27:14.904Z,40.41
2018-09-26T15:31:18.287Z,40.51
2018-09-26T15:35:21.914Z,40.51
2018-09-26T15:39:25.380Z,40.47
2018-09-26T15:43:28.784Z,40.68
2018-09-26T15:47:32.162Z,40.77
2018-09-26T15:51:35.816Z,40.95
2018-09-26T15:55:39.466Z,40.52
2018-09-26T15:59:43.174Z,40.98
2018-09-26T16:03:47.060Z,40.58
2018-09-26T16:07:50.423Z,40.97
2018-09-26T16:11:53.822Z,41.42
2018-09-26T16:15:57.215Z,41.07
2018-09-26T16:20:00.663Z,41.22
2018-09-26T16:24:04.061Z,41.94
2018-09-26T16:28:07.616Z,42.37
2018-09-26T16:32:11.033Z,42.52
2018-09-26T16:36:14.425Z,42.69
2018-09-26T16:40:17.840Z,42.55
2018-09-26T16:44:21.237Z,43.10
2018-09-26T16:48:24.759Z,42.91
2018-09-26T16:52:27.984Z,43.21
2018-09-26T16:56:31.427Z,43.48
2018-09-26T17:00:34.827Z,43.27
2018-09-26T17:04:38.319Z,43.54
2018-09-26T17:08:41.722Z,43.75
2018-09-26T17:12:45.277Z,44.63
2018-09-26T17:16:48.774Z,44.46
2018-09-26T17:20:52.175Z,44.61
2018-09-26T17:24:55.564Z,44.74
2018-09-26T17:28:59.184Z,44.97
2018-09-26T17:33:03.097Z,45.77
2018-09-26T17:37:06.607Z,46.52
2018-09-26T17:41:10.043Z,46.10
2018-09-26T17:45:13.399Z,45.49
2018-09-26T17:49:16.817Z,46.43
2018-09-26T17:53:20.219Z,45.92
2018-09-26T17:57:24.685Z,46.11
2018-09-26T18:01:28.134Z,46.24
2018-09-26T18:05:31.520Z,46.31
2018-09-26T18:09:34.992Z,47.04
2018-09-26T18:13:38.417Z,47.34
2018-09-26T18:17:41.924Z,46.77
2018-09-26T18:21:45.293Z,47.78
2018-09-26T18:25:48.872Z,47.15
2018-09-26T18:29:52.282Z,47.84
2018-09-26T18:33:55.819Z,48.15
2018-09-26T18:37:59.212Z,48.33
2018-09-26T18:42:04.224Z,47.89
2018-09-26T18:46:07.972Z,48.10
2018-09-26T18:50:11.492Z,48.91
2018-09-26T18:54:14.865Z,49.34
2018-09-26T18:58:18.373Z,49.00
2018-09-26T19:02:21.815Z,49.76
2018-09-26T19:06:25.584Z,50.24
2018-09-26T19:10:28.966Z,49.77
2018-09-26T19:14:32.439Z,50.25
2018-09-26T19:18:35.855Z,51.27
2018-09-26T19:22:40.023Z,51.40
2018-09-26T19:26:44.387Z,51.17
2018-09-26T19:30:47.815Z,51.39
2018-09-26T19:34:51.284Z,51.76
2018-09-26T19:38:54.882Z,52.15
2018-09-26T19:42:58.368Z,51.36
2018-09-26T19:47:01.736Z,51.37
2018-09-26T19:51:05.226Z,51.25
2018-09-26T19:55:08.583Z,51.86
2018-09-26T19:59:12.073Z,52.02
2018-09-26T20:03:15.676Z,52.40
2018-09-26T20:07:19.196Z,53.20
2018-09-26T20:11:22.782Z,52.33
2018-09-26T20:15:26.344Z,52.76
2018-09-26T20:19:29.840Z,53.12
2018-09-26T20:23:33.501Z,53.16
2018-09-26T20:27:37.058Z,54.05
2018-09-26T20:31:40.579Z,53.86
2018-09-26T20:35:44.153Z,54.32
2018-09-26T20:39:47.663Z,53.94
2018-09-26T20:43:51.287Z,53.67
2018-09-26T20:47:54.864Z,53.76
2018-09-26T20:51:58.603Z,54.35
2018-09-26T20:56:03.795Z,54.38
2018-09-26T21:00:07.264Z,54.67
2018-09-26T21:04:10.651Z,54.56
2018-09-26T21:08:14.101Z,54.91
2018-09-26T21:12:17.524Z,55.76
2018-09-26T21:16:20.960Z,56.11
2018-09-26T21:20:24.386Z,55.92
2018-09-26T21:24:27.792Z,56.49
2018-09-26T21:28:31.187Z,55.92
2018-09-26T21:32:34.704Z,56.51
2018-09-26T21:36:38.089Z,57.21
2018-09-26T21:40:41.535Z,57.07
2018-09-26T21:44:44.942Z,56.68
2018-09-26T21:48:48.315Z,57.02
2018-09-26T21:52:51.773Z,56.86
2018-09-26T21:56:55.205Z,57.63
2018-09-26T22:01:05.504Z,57.54
2018-09-26T22:05:08.927Z,57.43
2018-09-26T22:09:12.319Z,58.05
2018-09-26T22:13:15.723Z,57.37
2018-09-26T22:17:19.111Z,57.80
2018-09-26T22:21:22.490Z,57.39
2018-09-26T22:25:25.895Z,58.58
2018-09-26T22:29:29.280Z,58.75
2018-09-26T22:33:32.682Z,58.00
2018-09-26T22:37:36.198Z,58.61
2018-09-26T22:41:39.737Z,58.10
2018-09-26T22:45:43.112Z,58.19
2018-09-26T22:49:46.516Z,58.19
2018-09-26T22:53:49.922Z,58.32
2018-09-26T22:57:53.331Z,59.11
2018-09-26T23:01:56.688Z,58.62
2018-09-26T23:06:00.060Z,58.85
2018-09-26T23:10:03.449Z,58.81
2018-09-26T23:14:06.837Z,58.96
2018-09-26T23:18:10.246Z,59.31
2018-09-26T23:22:13.616Z,59.41
2018-09-26T23:26:16.983Z,59.44
2018-09-26T23:30:20.593Z,58.94
2018-09-26T23:34:24.080Z,59.83
2018-09-26T23:38:27.456Z,59.89
2018-09-26T23:42:30.911Z,59.74
2018-09-26T23:46:34.491Z,60.26
2018-09-26T23:50:37.863Z,59.90
2018-09-26T23:54:41.312Z,60.24
2018-09-26T23:58:44.695Z,59.74
